createdAt,value
2017-09-14T06:11:07.184Z,23.50
2017-09-14T06:13:36.352Z,23.60
2017-09-14T06:16:04.781Z,23.60
2017-09-14T06:18:32.889Z,23.70
2017-09-14T06:21:02.077Z,23.90
2017-09-14T06:23:31.273Z,24.00
2017-09-14T06:25:59.693Z,23.90
2017-09-14T06:28:28.087Z,24.10
2017-09-14T06:30:56.526Z,24.10
2017-09-14T06:33:24.993Z,24.20
2017-09-14T06:35:53.210Z,24.20
2017-09-14T06:38:21.420Z,24.20
2017-09-14T06:40:50.600Z,24.20
2017-09-14T06:43:19.575Z,24.20
2017-09-14T06:45:48.601Z,24.30
2017-09-14T06:48:16.856Z,24.30
2017-09-14T06:50:45.277Z,24.30
2017-09-14T06:53:14.466Z,24.40
2017-09-14T06:55:43.692Z,24.40
2017-09-14T06:58:12.092Z,24.40
2017-09-14T07:00:40.143Z,24.50
2017-09-14T07:03:08.570Z,24.40
2017-09-14T07:05:37.012Z,24.50
2017-09-14T07:08:05.433Z,24.50
2017-09-14T07:10:33.868Z,24.50
2017-09-14T07:13:02.268Z,24.50
2017-09-14T07:15:31.466Z,24.60
2017-09-14T07:17:59.769Z,24.60
2017-09-14T07:20:28.396Z,24.60
2017-09-14T07:22:56.903Z,24.60
2017-09-14T07:25:25.339Z,24.60
2017-09-14T07:27:54.355Z,24.60
2017-09-14T07:30:22.781Z,24.70
2017-09-14T07:32:51.989Z,24.70
2017-09-14T07:35:20.394Z,24.60
2017-09-14T07:37:48.807Z,24.70
2017-09-14T07:40:17.266Z,24.70
2017-09-14T07:42:45.700Z,24.70
2017-09-14T07:45:14.131Z,24.70
2017-09-14T07:47:42.619Z,24.80
2017-09-14T07:50:10.697Z,24.80
2017-09-14T07:52:39.141Z,24.80
2017-09-14T07:55:07.582Z,24.80
2017-09-14T07:57:36.005Z,24.80
2017-09-14T08:00:03.749Z,24.80
2017-09-14T08:02:31.829Z,24.80
2017-09-14T08:05:00.269Z,24.90
2017-09-14T08:07:27.967Z,24.90
2017-09-14T08:09:56.510Z,24.90
2017-09-14T08:12:24.560Z,24.90
2017-09-14T08:14:52.656Z,24.90
2017-09-14T08:17:21.837Z,24.90
2017-09-14T08:19:49.926Z,24.90
2017-09-14T08:22:17.628Z,25.00
2017-09-14T08:24:46.821Z,24.90
2017-09-14T08:27:15.227Z,25.00
2017-09-14T08:29:43.643Z,25.00
2017-09-14T08:32:12.816Z,25.00
2017-09-14T08:34:41.980Z,25.00
2017-09-14T08:37:11.917Z,25.00
2017-09-14T08:39:40.329Z,25.00
2017-09-14T08:42:08.762Z,25.00
2017-09-14T08:44:36.851Z,25.00
2017-09-14T08:47:05.282Z,25.00
2017-09-14T08:49:33.522Z,25.00
2017-09-14T08:52:01.728Z,25.00
2017-09-14T08:54:30.153Z,25.10
2017-09-14T08:56:58.589Z,25.10
2017-09-14T08:59:27.013Z,25.00
2017-09-14T09:01:55.231Z,25.10
2017-09-14T09:04:23.669Z,25.10
2017-09-14T09:06:52.064Z,25.10
2017-09-14T09:09:21.261Z,25.10
2017-09-14T09:11:50.428Z,25.10
2017-09-14T09:14:19.606Z,25.10
2017-09-14T09:16:48.052Z,25.10
2017-09-14T09:19:16.483Z,25.10
2017-09-14T09:21:44.910Z,25.10
2017-09-14T09:24:14.122Z,25.10
2017-09-14T09:26:42.516Z,25.10
2017-09-14T09:29:10.955Z,25.10
2017-09-14T09:31:39.410Z,25.10
2017-09-14T09:34:07.650Z,25.20
2017-09-14T09:36:36.525Z,25.10
2017-09-14T09:39:04.052Z,25.20
2017-09-14T09:41:33.215Z,25.20
2017-09-14T09:44:02.342Z,25.10
2017-09-14T09:46:30.794Z,25.20
2017-09-14T09:48:59.190Z,25.20
2017-09-14T09:51:27.285Z,25.20
2017-09-14T09:53:55.707Z,25.20
2017-09-14T09:56:24.117Z,25.20
2017-09-14T09:58:52.512Z,25.20
2017-09-14T10:01:20.970Z,25.20
2017-09-14T10:03:49.397Z,25.20
2017-09-14T10:06:17.477Z,25.20
2017-09-14T10:08:45.925Z,25.20
2017-09-14T10:11:14.346Z,25.20
2017-09-14T10:13:43.539Z,25.20
2017-09-14T10:16:11.993Z,25.20
2017-09-14T10:18:40.400Z,25.20
2017-09-14T10:21:08.833Z,25.20
2017-09-14T10:23:37.062Z,25.20
2017-09-14T10:26:04.584Z,25.20
2017-09-14T10:28:33.027Z,25.20
2017-09-14T10:31:01.473Z,25.20
2017-09-14T10:33:29.864Z,25.30
2017-09-14T10:35:58.084Z,25.30
2017-09-14T10:38:26.553Z,25.30
2017-09-14T10:40:54.985Z,25.30
2017-09-14T10:43:23.419Z,25.30
2017-09-14T10:45:51.863Z,25.30
2017-09-14T10:48:21.715Z,25.30
2017-09-14T10:50:50.117Z,25.30
2017-09-14T10:53:18.571Z,25.30
2017-09-14T10:55:46.972Z,25.30
2017-09-14T10:58:15.372Z,25.30
2017-09-14T11:00:43.826Z,25.30
2017-09-14T11:03:12.991Z,25.30
2017-09-14T11:05:41.413Z,25.30
2017-09-14T11:08:09.865Z,25.30
2017-09-14T11:10:38.268Z,25.30
2017-09-14T11:13:06.672Z,25.30
2017-09-14T11:15:34.817Z,25.30
2017-09-14T11:18:03.292Z,25.40
2017-09-14T11:20:31.782Z,25.40
2017-09-14T11:23:00.237Z,25.40
2017-09-14T11:25:28.501Z,25.40
2017-09-14T11:27:56.933Z,25.30
2017-09-14T11:30:26.141Z,25.00
2017-09-14T11:32:54.580Z,25.00
2017-09-14T11:35:23.769Z,24.80
2017-09-14T11:37:52.230Z,24.80
2017-09-14T11:40:20.690Z,24.80
2017-09-14T11:42:49.847Z,24.60
2017-09-14T11:45:18.304Z,24.60
2017-09-14T11:47:46.051Z,24.60
2017-09-14T11:50:14.134Z,24.60
2017-09-14T11:52:42.993Z,24.50
2017-09-14T11:55:12.155Z,24.40
2017-09-14T11:57:40.556Z,24.40
2017-09-14T12:00:08.813Z,24.40
2017-09-14T12:02:38.015Z,24.30
2017-09-14T12:05:06.469Z,24.30
2017-09-14T12:07:34.966Z,24.30
2017-09-14T12:10:03.358Z,24.30
2017-09-14T12:12:31.755Z,24.20
2017-09-14T12:15:00.209Z,24.20
2017-09-14T12:17:29.372Z,24.10
2017-09-14T12:19:57.772Z,24.10
2017-09-14T12:22:26.222Z,24.10
2017-09-14T12:24:55.415Z,24.10
2017-09-14T12:27:23.816Z,24.10
2017-09-14T12:29:52.235Z,24.10
2017-09-14T12:32:20.650Z,24.10
2017-09-14T12:34:49.051Z,24.10
2017-09-14T12:37:18.250Z,24.10
2017-09-14T12:39:46.684Z,24.10
2017-09-14T12:42:15.080Z,24.10
2017-09-14T12:44:43.509Z,24.10
2017-09-14T12:47:12.682Z,24.10
2017-09-14T12:49:41.365Z,24.10
2017-09-14T12:52:09.840Z,24.10
2017-09-14T12:54:38.242Z,24.20
2017-09-14T12:57:06.673Z,24.10
2017-09-14T12:59:35.126Z,24.10
2017-09-14T13:02:03.549Z,24.10
2017-09-14T13:04:32.751Z,24.10
2017-09-14T13:07:00.987Z,24.10
2017-09-14T13:09:30.152Z,24.10
2017-09-14T13:11:58.564Z,24.10
2017-09-14T13:14:26.802Z,24.10
2017-09-14T13:16:55.062Z,24.10
2017-09-14T13:19:24.075Z,24.10
2017-09-14T13:21:52.335Z,24.00
2017-09-14T13:24:20.218Z,24.10
2017-09-14T13:26:48.864Z,24.00
2017-09-14T13:29:17.295Z,24.00
2017-09-14T13:31:45.720Z,24.00
2017-09-14T13:34:14.149Z,24.00
2017-09-14T13:36:42.582Z,24.00
2017-09-14T13:39:10.648Z,24.00
2017-09-14T13:41:38.718Z,24.00
2017-09-14T13:44:06.613Z,24.00
2017-09-14T13:46:35.136Z,24.00
2017-09-14T13:49:03.347Z,24.00
2017-09-14T13:51:31.767Z,24.00
2017-09-14T13:53:59.973Z,24.00
2017-09-14T13:56:28.061Z,24.00
2017-09-14T13:58:56.556Z,24.00
2017-09-14T14:01:24.951Z,23.90
2017-09-14T14:03:53.376Z,23.90
2017-09-14T14:06:21.179Z,23.90
2017-09-14T14:08:48.928Z,23.90
2017-09-14T14:11:18.126Z,23.90
2017-09-14T14:13:46.188Z,23.90
2017-09-14T14:16:13.943Z,23.90
2017-09-14T14:18:42.039Z,24.00
2017-09-14T14:21:10.501Z,23.90
2017-09-14T14:23:38.899Z,23.90
2017-09-14T14:26:08.091Z,23.90
2017-09-14T14:28:37.315Z,23.90
2017-09-14T14:31:05.742Z,23.90
2017-09-14T14:33:33.957Z,23.90
2017-09-14T14:36:02.676Z,23.90
2017-09-14T14:38:30.410Z,23.90
2017-09-14T14:40:59.236Z,23.90
2017-09-14T14:43:27.703Z,23.90
2017-09-14T14:45:56.130Z,23.90
2017-09-14T14:48:24.216Z,23.90
2017-09-14T14:50:52.623Z,23.90
2017-09-14T14:53:21.796Z,23.80
2017-09-14T14:55:50.193Z,23.80
2017-09-14T14:58:18.306Z,23.80
2017-09-14T15:00:47.475Z,23.70
2017-09-14T15:03:15.690Z,23.70
2017-09-14T15:05:44.126Z,23.70
2017-09-14T15:08:12.516Z,23.60
2017-09-14T15:10:40.950Z,23.60
2017-09-14T15:13:09.418Z,23.60
2017-09-14T15:15:37.821Z,23.50
2017-09-14T15:18:05.914Z,23.50
2017-09-14T15:20:34.593Z,23.50
2017-09-14T15:23:03.257Z,23.50
2017-09-14T15:25:32.483Z,23.40
2017-09-14T15:28:00.758Z,23.40
2017-09-14T15:30:29.257Z,23.40
2017-09-14T15:32:57.469Z,23.40
2017-09-14T15:35:25.703Z,23.40
2017-09-14T15:37:53.945Z,23.40
2017-09-14T15:43:33.615Z,23.40
2017-09-14T15:46:03.388Z,23.40
2017-09-14T15:48:37.426Z,23.40
2017-09-14T15:51:11.433Z,23.40
2017-09-14T15:53:40.627Z,23.30
2017-09-14T15:56:09.827Z,23.30
2017-09-14T15:58:38.273Z,23.30
2017-09-14T16:01:07.438Z,23.30
2017-09-14T16:03:36.265Z,23.30
2017-09-14T16:06:04.724Z,23.30
2017-09-14T16:08:32.958Z,23.30
2017-09-14T16:11:01.394Z,23.30
2017-09-14T16:13:29.819Z,23.30
2017-09-14T16:15:58.241Z,23.20
2017-09-14T16:18:26.677Z,23.30
2017-09-14T16:20:55.116Z,23.30
2017-09-14T16:23:23.545Z,23.30
2017-09-14T16:25:51.939Z,23.20
2017-09-14T16:28:20.363Z,23.20
2017-09-14T16:30:48.799Z,23.20
2017-09-14T16:33:17.481Z,23.20
2017-09-14T16:35:46.693Z,23.20
2017-09-14T16:38:15.094Z,23.20
2017-09-14T16:40:44.261Z,23.60
2017-09-14T16:43:12.716Z,23.60
2017-09-14T16:45:41.115Z,23.70
2017-09-14T16:48:09.558Z,23.90
2017-09-14T16:50:37.972Z,24.10
2017-09-14T16:53:06.401Z,24.10
2017-09-14T16:55:34.502Z,24.20
2017-09-14T16:58:02.998Z,24.20
2017-09-14T17:00:31.430Z,24.40
2017-09-14T17:02:59.836Z,24.40
2017-09-14T17:05:28.310Z,24.50
2017-09-14T17:07:56.748Z,24.50
2017-09-14T17:10:25.153Z,24.60
2017-09-14T17:12:53.611Z,24.60
2017-09-14T17:15:21.685Z,24.60
2017-09-14T17:17:50.852Z,24.70
2017-09-14T17:20:20.069Z,24.80
2017-09-14T17:22:48.501Z,24.80
2017-09-14T17:25:18.094Z,24.80
2017-09-14T17:27:45.849Z,24.80
2017-09-14T17:30:14.692Z,24.90
2017-09-14T17:32:43.120Z,24.90
2017-09-14T17:35:11.553Z,25.00
2017-09-14T17:37:40.724Z,25.00
2017-09-14T17:40:09.893Z,25.00
2017-09-14T17:42:38.320Z,25.00
2017-09-14T17:45:06.562Z,25.00
2017-09-14T17:47:34.952Z,25.10
2017-09-14T17:50:03.372Z,25.20
2017-09-14T17:52:31.813Z,25.20
2017-09-14T17:55:00.645Z,25.20
2017-09-14T17:57:29.103Z,25.20
2017-09-14T17:59:57.534Z,25.20
2017-09-14T18:02:26.701Z,25.20
2017-09-14T18:04:55.149Z,25.20
2017-09-14T18:07:23.360Z,25.20
2017-09-14T18:09:51.794Z,25.20
2017-09-14T18:12:20.821Z,25.30
2017-09-14T18:14:49.258Z,25.20
2017-09-14T18:17:17.696Z,25.30
2017-09-14T18:19:46.915Z,25.60
2017-09-14T18:22:15.338Z,25.50
2017-09-14T18:24:44.504Z,25.90
2017-09-14T18:27:12.962Z,25.90
2017-09-14T18:29:41.353Z,26.10
2017-09-14T18:32:10.558Z,26.30
2017-09-14T18:34:38.627Z,26.30
2017-09-14T18:37:07.056Z,26.40
2017-09-14T18:39:36.220Z,26.20
2017-09-14T18:42:05.443Z,26.10
2017-09-14T18:44:33.881Z,26.10
2017-09-14T18:47:03.064Z,25.90
2017-09-14T18:49:32.235Z,25.90
2017-09-14T18:52:01.424Z,25.80
2017-09-14T18:54:30.593Z,25.70
2017-09-14T18:56:59.784Z,25.70
2017-09-14T18:59:28.990Z,25.70
2017-09-14T19:01:57.391Z,25.60
2017-09-14T19:04:25.859Z,25.70
2017-09-14T19:06:54.281Z,25.70
2017-09-14T19:09:22.713Z,25.80
2017-09-14T19:11:51.920Z,25.90
2017-09-14T19:14:20.346Z,25.90
2017-09-14T19:16:48.778Z,25.90
2017-09-14T19:19:17.183Z,26.00
2017-09-14T19:21:45.844Z,26.10
2017-09-14T19:24:14.293Z,26.10
2017-09-14T19:26:42.716Z,26.00
2017-09-14T19:29:11.158Z,25.90
2017-09-14T19:31:40.319Z,26.00
2017-09-14T19:34:09.508Z,26.00
2017-09-14T19:36:38.685Z,26.00
2017-09-14T19:39:07.339Z,26.00
2017-09-14T19:41:35.760Z,26.10
2017-09-14T19:44:03.830Z,26.40
2017-09-14T19:46:31.917Z,26.50
2017-09-14T19:49:00.327Z,26.40
2017-09-14T19:51:28.756Z,26.40
2017-09-14T19:53:57.957Z,26.40
2017-09-14T19:56:26.457Z,26.40
2017-09-14T19:58:54.882Z,26.40
2017-09-14T20:01:23.316Z,26.40
2017-09-14T20:03:51.770Z,26.30
2017-09-14T20:06:19.819Z,26.30
2017-09-14T20:08:48.219Z,26.20
2017-09-14T20:11:16.734Z,26.10
2017-09-14T20:13:46.182Z,26.00
2017-09-14T20:16:14.388Z,26.00
2017-09-14T20:18:42.811Z,26.00
2017-09-14T20:21:11.220Z,26.10
2017-09-14T20:23:39.907Z,26.10
2017-09-14T20:26:08.571Z,26.10
2017-09-14T20:28:37.156Z,26.10
2017-09-14T20:31:05.605Z,26.10
2017-09-14T20:33:33.369Z,26.10
2017-09-14T20:36:02.548Z,25.80
2017-09-14T20:38:31.733Z,24.80
2017-09-14T20:41:00.719Z,23.70
2017-09-14T20:43:29.751Z,22.90
2017-09-14T20:45:57.964Z,22.90
2017-09-14T20:48:26.418Z,22.10
2017-09-14T20:50:55.580Z,21.30
2017-09-14T20:53:24.064Z,21.20
2017-09-14T20:55:53.297Z,20.80
2017-09-14T20:58:22.474Z,20.80
2017-09-14T21:00:50.900Z,20.60
2017-09-14T21:03:19.310Z,20.30
2017-09-14T21:05:47.707Z,20.20
2017-09-14T21:08:16.961Z,20.00
2017-09-14T21:10:45.063Z,19.90
2017-09-14T21:13:13.472Z,19.90
2017-09-14T21:15:41.901Z,19.80
2017-09-14T21:18:10.331Z,19.60
2017-09-14T21:20:39.534Z,19.40
2017-09-14T21:23:07.961Z,19.40
2017-09-14T21:25:36.392Z,19.30
2017-09-14T21:28:04.800Z,19.30
2017-09-14T21:30:32.889Z,19.20
2017-09-14T21:33:01.324Z,19.40
2017-09-14T21:35:30.156Z,20.40
2017-09-14T21:37:58.591Z,20.40
2017-09-14T21:40:27.007Z,20.90
2017-09-14T21:42:55.437Z,21.30
2017-09-14T21:45:23.518Z,21.70
2017-09-14T21:47:51.969Z,22.00
2017-09-14T21:50:20.398Z,22.20
2017-09-14T21:52:48.834Z,22.40
2017-09-14T21:55:18.046Z,22.70
2017-09-14T21:57:46.440Z,22.60
2017-09-14T22:00:14.496Z,22.80
2017-09-14T22:02:42.920Z,23.00
2017-09-14T22:05:11.332Z,23.10
2017-09-14T22:07:39.744Z,23.20
2017-09-14T22:10:08.160Z,23.20
2017-09-14T22:12:36.562Z,22.60
2017-09-14T22:15:04.858Z,21.20
2017-09-14T22:17:33.318Z,21.20
